sensor_id;sensor_type;location;lat;lon;timestamp;pressure;altitude;pressure_sealevel;temperature;humidity
42587;BME280;28216;53.362;-6.288;2023-02-18T00:02:02;101382.53;;;11.73;100.00
42587;BME280;28216;53.362;-6.288;2023-02-18T00:04:28;101387.22;;;11.80;100.00
42587;BME280;28216;53.362;-6.288;2023-02-18T00:06:53;101380.44;;;11.77;100.00
42587;BME280;28216;53.362;-6.288;2023-02-18T00:09:19;101393.88;;;11.74;100.00
42587;BME280;28216;53.362;-6.288;2023-02-18T00:11:44;101381.28;;;11.77;100.00
42587;BME280;28216;53.362;-6.288;2023-02-18T00:14:12;101386.97;;;11.73;100.00
42587;BME280;28216;53.362;-6.288;2023-02-18T00:16:38;101393.88;;;11.74;100.00
42587;BME280;28216;53.362;-6.288;2023-02-18T00:19:05;101388.91;;;11.71;100.00
42587;BME280;28216;53.362;-6.288;2023-02-18T00:21:32;101373.00;;;11.72;100.00
42587;BME280;28216;53.362;-6.288;2023-02-18T00:23:58;101366.72;;;11.65;100.00
42587;BME280;28216;53.362;-6.288;2023-02-18T00:26:24;101369.94;;;11.59;100.00
42587;BME280;28216;53.362;-6.288;2023-02-18T00:28:50;101370.75;;;11.60;100.00
42587;BME280;28216;53.362;-6.288;2023-02-18T00:31:27;101369.41;;;11.56;100.00
42587;BME280;28216;53.362;-6.288;2023-02-18T00:33:53;101357.25;;;11.55;100.00
42587;BME280;28216;53.362;-6.288;2023-02-18T00:36:20;101375.63;;;11.55;100.00
42587;BME280;28216;53.362;-6.288;2023-02-18T00:38:51;101372.78;;;11.48;100.00
42587;BME280;28216;53.362;-6.288;2023-02-18T00:41:17;101359.00;;;11.46;100.00
42587;BME280;28216;53.362;-6.288;2023-02-18T00:43:43;101369.94;;;11.41;100.00
42587;BME280;28216;53.362;-6.288;2023-02-18T00:46:09;101357.13;;;11.38;100.00
42587;BME280;28216;53.362;-6.288;2023-02-18T00:48:35;101371.06;;;11.39;100.00
42587;BME280;28216;53.362;-6.288;2023-02-18T00:51:03;101363.63;;;11.34;100.00
42587;BME280;28216;53.362;-6.288;2023-02-18T00:53:30;101358.31;;;11.26;100.00
42587;BME280;28216;53.362;-6.288;2023-02-18T00:55:55;101363.41;;;11.28;100.00
42587;BME280;28216;53.362;-6.288;2023-02-18T00:58:21;101360.34;;;11.32;100.00
42587;BME280;28216;53.362;-6.288;2023-02-18T01:00:47;101361.16;;;11.33;100.00
42587;BME280;28216;53.362;-6.288;2023-02-18T01:03:13;101361.59;;;11.28;100.00
42587;BME280;28216;53.362;-6.288;2023-02-18T01:05:38;101344.06;;;11.29;100.00
42587;BME280;28216;53.362;-6.288;2023-02-18T01:08:06;101355.91;;;11.33;100.00
42587;BME280;28216;53.362;-6.288;2023-02-18T01:10:32;101334.91;;;11.33;100.00
42587;BME280;28216;53.362;-6.288;2023-02-18T01:12:59;101357.03;;;11.30;100.00
42587;BME280;28216;53.362;-6.288;2023-02-18T01:15:25;101343.00;;;11.22;100.00
42587;BME280;28216;53.362;-6.288;2023-02-18T01:17:51;101351.19;;;11.19;100.00
42587;BME280;28216;53.362;-6.288;2023-02-18T01:20:17;101340.53;;;11.20;100.00
42587;BME280;28216;53.362;-6.288;2023-02-18T01:22:43;101342.06;;;11.13;100.00
42587;BME280;28216;53.362;-6.288;2023-02-18T01:25:09;101335.47;;;11.09;100.00
42587;BME280;28216;53.362;-6.288;2023-02-18T01:27:36;101348.44;;;11.10;100.00
42587;BME280;28216;53.362;-6.288;2023-02-18T01:30:06;101340.72;;;11.09;100.00
42587;BME280;28216;53.362;-6.288;2023-02-18T01:32:32;101360.75;;;11.10;100.00
42587;BME280;28216;53.362;-6.288;2023-02-18T01:35:00;101351.06;;;11.10;100.00
42587;BME280;28216;53.362;-6.288;2023-02-18T01:37:26;101344.31;;;11.08;100.00
42587;BME280;28216;53.362;-6.288;2023-02-18T01:39:51;101343.34;;;11.09;100.00
42587;BME280;28216;53.362;-6.288;2023-02-18T01:42:22;101324.28;;;11.07;100.00
42587;BME280;28216;53.362;-6.288;2023-02-18T01:44:48;101338.53;;;11.04;100.00
42587;BME280;28216;53.362;-6.288;2023-02-18T01:47:15;101333.72;;;11.00;100.00
42587;BME280;28216;53.362;-6.288;2023-02-18T01:49:42;101334.41;;;11.02;100.00
42587;BME280;28216;53.362;-6.288;2023-02-18T01:52:16;101343.41;;;10.99;100.00
42587;BME280;28216;53.362;-6.288;2023-02-18T01:54:51;101330.50;;;11.06;100.00
42587;BME280;28216;53.362;-6.288;2023-02-18T01:57:24;101332.69;;;11.10;100.00
42587;BME280;28216;53.362;-6.288;2023-02-18T01:59:55;101328.69;;;11.16;100.00
42587;BME280;28216;53.362;-6.288;2023-02-18T02:02:23;101328.53;;;11.18;100.00
42587;BME280;28216;53.362;-6.288;2023-02-18T02:04:51;101323.81;;;11.21;100.00
42587;BME280;28216;53.362;-6.288;2023-02-18T02:07:18;101335.97;;;11.22;100.00
42587;BME280;28216;53.362;-6.288;2023-02-18T02:09:45;101332.06;;;11.26;100.00
42587;BME280;28216;53.362;-6.288;2023-02-18T02:37:07;101341.28;;;11.30;100.00
42587;BME280;28216;53.362;-6.288;2023-02-18T02:51:17;101337.00;;;11.47;100.00
42587;BME280;28216;53.362;-6.288;2023-02-18T02:53:44;101348.03;;;11.51;100.00
42587;BME280;28216;53.362;-6.288;2023-02-18T02:56:28;101352.16;;;11.53;100.00
42587;BME280;28216;53.362;-6.288;2023-02-18T02:59:00;101336.56;;;11.52;100.00
42587;BME280;28216;53.362;-6.288;2023-02-18T03:04:15;101344.72;;;11.49;100.00
42587;BME280;28216;53.362;-6.288;2023-02-18T03:09:54;101351.63;;;11.50;100.00
42587;BME280;28216;53.362;-6.288;2023-02-18T03:17:54;101374.75;;;11.46;100.00
42587;BME280;28216;53.362;-6.288;2023-02-18T03:20:34;101383.28;;;11.48;100.00
42587;BME280;28216;53.362;-6.288;2023-02-18T03:23:07;101382.78;;;11.44;100.00
42587;BME280;28216;53.362;-6.288;2023-02-18T03:25:36;101374.75;;;11.46;100.00
42587;BME280;28216;53.362;-6.288;2023-02-18T03:28:10;101388.16;;;11.43;100.00
42587;BME280;28216;53.362;-6.288;2023-02-18T03:30:42;101393.72;;;11.40;100.00
42587;BME280;28216;53.362;-6.288;2023-02-18T03:33:13;101390.13;;;11.41;100.00
42587;BME280;28216;53.362;-6.288;2023-02-18T03:35:41;101386.66;;;11.40;100.00
42587;BME280;28216;53.362;-6.288;2023-02-18T03:38:19;101377.81;;;11.41;100.00
42587;BME280;28216;53.362;-6.288;2023-02-18T03:40:46;101377.81;;;11.41;100.00
42587;BME280;28216;53.362;-6.288;2023-02-18T03:43:12;101366.94;;;11.36;100.00
42587;BME280;28216;53.362;-6.288;2023-02-18T03:45:37;101361.91;;;11.25;100.00
42587;BME280;28216;53.362;-6.288;2023-02-18T03:48:03;101375.63;;;11.19;100.00
42587;BME280;28216;53.362;-6.288;2023-02-18T03:50:29;101379.94;;;11.10;100.00
42587;BME280;28216;53.362;-6.288;2023-02-18T03:52:54;101378.44;;;11.08;100.00
42587;BME280;28216;53.362;-6.288;2023-02-18T03:55:20;101389.91;;;11.07;100.00
42587;BME280;28216;53.362;-6.288;2023-02-18T03:57:45;101387.41;;;11.05;100.00
42587;BME280;28216;53.362;-6.288;2023-02-18T04:00:11;101388.78;;;11.09;100.00
42587;BME280;28216;53.362;-6.288;2023-02-18T04:02:37;101383.38;;;11.11;100.00
42587;BME280;28216;53.362;-6.288;2023-02-18T04:05:02;101393.88;;;11.11;100.00
42587;BME280;28216;53.362;-6.288;2023-02-18T04:07:28;101393.06;;;11.10;100.00
42587;BME280;28216;53.362;-6.288;2023-02-18T04:09:53;101395.94;;;11.17;100.00
42587;BME280;28216;53.362;-6.288;2023-02-18T04:12:19;101386.53;;;11.14;100.00
42587;BME280;28216;53.362;-6.288;2023-02-18T04:14:44;101391.69;;;11.06;100.00
42587;BME280;28216;53.362;-6.288;2023-02-18T04:17:10;101387.03;;;11.00;100.00
42587;BME280;28216;53.362;-6.288;2023-02-18T04:19:35;101373.44;;;10.87;100.00
42587;BME280;28216;53.362;-6.288;2023-02-18T04:22:01;101388.28;;;10.69;100.00
42587;BME280;28216;53.362;-6.288;2023-02-18T04:24:26;101408.75;;;10.65;100.00
42587;BME280;28216;53.362;-6.288;2023-02-18T04:26:52;101388.72;;;10.64;100.00
42587;BME280;28216;53.362;-6.288;2023-02-18T04:29:17;101386.97;;;10.55;100.00
42587;BME280;28216;53.362;-6.288;2023-02-18T04:31:42;101383.66;;;10.53;100.00
42587;BME280;28216;53.362;-6.288;2023-02-18T04:34:08;101391.13;;;10.48;100.00
42587;BME280;28216;53.362;-6.288;2023-02-18T04:36:33;101391.13;;;10.48;100.00
42587;BME280;28216;53.362;-6.288;2023-02-18T04:38:59;101387.41;;;10.50;100.00
42587;BME280;28216;53.362;-6.288;2023-02-18T04:41:24;101386.44;;;10.52;100.00
42587;BME280;28216;53.362;-6.288;2023-02-18T04:43:50;101389.50;;;10.47;100.00
42587;BME280;28216;53.362;-6.288;2023-02-18T04:46:16;101400.13;;;10.45;100.00
42587;BME280;28216;53.362;-6.288;2023-02-18T04:48:41;101389.63;;;10.45;100.00
42587;BME280;28216;53.362;-6.288;2023-02-18T04:51:07;101393.91;;;10.46;100.00
42587;BME280;28216;53.362;-6.288;2023-02-18T04:53:33;101392.94;;;10.47;100.00
42587;BME280;28216;53.362;-6.288;2023-02-18T04:55:58;101377.75;;;10.51;100.00
42587;BME280;28216;53.362;-6.288;2023-02-18T04:58:24;101367.41;;;10.49;100.00
42587;BME280;28216;53.362;-6.288;2023-02-18T05:00:49;101381.63;;;10.47;100.00
42587;BME280;28216;53.362;-6.288;2023-02-18T05:03:15;101374.72;;;10.46;100.00
42587;BME280;28216;53.362;-6.288;2023-02-18T05:05:41;101382.31;;;10.49;100.00
42587;BME280;28216;53.362;-6.288;2023-02-18T05:08:07;101381.47;;;10.48;100.00
42587;BME280;28216;53.362;-6.288;2023-02-18T05:10:33;101381.47;;;10.48;100.00
42587;BME280;28216;53.362;-6.288;2023-02-18T05:12:59;101380.22;;;10.53;100.00
42587;BME280;28216;53.362;-6.288;2023-02-18T05:15:24;101391.53;;;10.53;100.00
42587;BME280;28216;53.362;-6.288;2023-02-18T05:17:50;101374.69;;;10.56;100.00
42587;BME280;28216;53.362;-6.288;2023-02-18T05:20:15;101373.88;;;10.55;100.00
42587;BME280;28216;53.362;-6.288;2023-02-18T05:22:41;101387.66;;;10.57;100.00
42587;BME280;28216;53.362;-6.288;2023-02-18T05:25:07;101367.78;;;10.55;100.00
42587;BME280;28216;53.362;-6.288;2023-02-18T05:27:32;101387.94;;;10.54;100.00
42587;BME280;28216;53.362;-6.288;2023-02-18T05:29:58;101381.63;;;10.47;100.00
42587;BME280;28216;53.362;-6.288;2023-02-18T05:32:23;101384.25;;;10.47;100.00
42587;BME280;28216;53.362;-6.288;2023-02-18T05:34:49;101379.44;;;10.42;100.00
42587;BME280;28216;53.362;-6.288;2023-02-18T05:37:14;101365.63;;;10.40;100.00
42587;BME280;28216;53.362;-6.288;2023-02-18T05:39:41;101371.97;;;10.38;100.00
42587;BME280;28216;53.362;-6.288;2023-02-18T05:42:06;101374.88;;;10.35;100.00
42587;BME280;28216;53.362;-6.288;2023-02-18T05:44:32;101375.97;;;10.32;100.00
42587;BME280;28216;53.362;-6.288;2023-02-18T05:47:00;101376.25;;;10.29;100.00
42587;BME280;28216;53.362;-6.288;2023-02-18T05:49:26;101372.00;;;10.28;100.00
42587;BME280;28216;53.362;-6.288;2023-02-18T05:51:52;101370.88;;;10.31;100.00
42587;BME280;28216;53.362;-6.288;2023-02-18T05:54:18;101373.09;;;10.26;100.00
42587;BME280;28216;53.362;-6.288;2023-02-18T05:56:43;101370.34;;;10.27;100.00
42587;BME280;28216;53.362;-6.288;2023-02-18T05:59:08;101361.78;;;10.25;100.00
42587;BME280;28216;53.362;-6.288;2023-02-18T06:01:34;101373.94;;;10.26;100.00
42587;BME280;28216;53.362;-6.288;2023-02-18T06:03:59;101370.47;;;10.26;100.00
42587;BME280;28216;53.362;-6.288;2023-02-18T06:06:25;101368.81;;;10.25;100.00
42587;BME280;28216;53.362;-6.288;2023-02-18T06:08:50;101367.31;;;10.22;100.00
42587;BME280;28216;53.362;-6.288;2023-02-18T06:11:16;101373.38;;;10.23;100.00
42587;BME280;28216;53.362;-6.288;2023-02-18T06:13:41;101368.41;;;10.19;100.00
42587;BME280;28216;53.362;-6.288;2023-02-18T06:16:06;101382.91;;;10.24;100.00
42587;BME280;28216;53.362;-6.288;2023-02-18T06:18:32;101377.66;;;10.24;100.00
42587;BME280;28216;53.362;-6.288;2023-02-18T06:20:57;101384.69;;;10.23;100.00
42587;BME280;28216;53.362;-6.288;2023-02-18T06:23:23;101386.06;;;10.27;100.00
42587;BME280;28216;53.362;-6.288;2023-02-18T06:25:48;101378.59;;;10.32;100.00
42587;BME280;28216;53.362;-6.288;2023-02-18T06:28:15;101388.41;;;10.30;100.00
42587;BME280;28216;53.362;-6.288;2023-02-18T06:30:40;101393.50;;;10.32;100.00
42587;BME280;28216;53.362;-6.288;2023-02-18T06:33:06;101392.00;;;10.29;100.00
42587;BME280;28216;53.362;-6.288;2023-02-18T06:35:31;101390.59;;;10.35;100.00
42587;BME280;28216;53.362;-6.288;2023-02-18T06:37:57;101388.81;;;10.35;100.00
42587;BME280;28216;53.362;-6.288;2023-02-18T06:40:23;101396.13;;;10.41;100.00
42587;BME280;28216;53.362;-6.288;2023-02-18T06:42:48;101389.78;;;10.44;100.00
42587;BME280;28216;53.362;-6.288;2023-02-18T06:45:14;101399.72;;;10.40;100.00
42587;BME280;28216;53.362;-6.288;2023-02-18T06:47:39;101395.16;;;10.42;100.00
42587;BME280;28216;53.362;-6.288;2023-02-18T06:50:09;101400.25;;;10.44;100.00
42587;BME280;28216;53.362;-6.288;2023-02-18T06:52:34;101400.94;;;10.46;100.00
42587;BME280;28216;53.362;-6.288;2023-02-18T06:55:06;101413.75;;;10.49;100.00
42587;BME280;28216;53.362;-6.288;2023-02-18T06:57:31;101413.09;;;10.47;100.00
42587;BME280;28216;53.362;-6.288;2023-02-18T06:59:57;101418.06;;;10.40;100.00
42587;BME280;28216;53.362;-6.288;2023-02-18T07:02:22;101418.19;;;10.48;100.00
42587;BME280;28216;53.362;-6.288;2023-02-18T07:04:48;101422.31;;;10.51;100.00
42587;BME280;28216;53.362;-6.288;2023-02-18T07:07:13;101416.94;;;10.53;100.00
42587;BME280;28216;53.362;-6.288;2023-02-18T07:09:39;101427.13;;;10.56;100.00
42587;BME280;28216;53.362;-6.288;2023-02-18T07:12:04;101423.41;;;10.58;100.00
42587;BME280;28216;53.362;-6.288;2023-02-18T07:14:30;101432.63;;;10.62;100.00
42587;BME280;28216;53.362;-6.288;2023-02-18T07:16:55;101445.47;;;10.65;100.00
42587;BME280;28216;53.362;-6.288;2023-02-18T07:19:21;101459.94;;;10.69;100.00
42587;BME280;28216;53.362;-6.288;2023-02-18T07:21:46;101461.88;;;10.67;100.00
42587;BME280;28216;53.362;-6.288;2023-02-18T07:24:12;101466.16;;;10.68;100.00
42587;BME280;28216;53.362;-6.288;2023-02-18T07:26:37;101473.59;;;10.73;100.00
42587;BME280;28216;53.362;-6.288;2023-02-18T07:29:02;101478.16;;;10.71;100.00
42587;BME280;28216;53.362;-6.288;2023-02-18T07:31:28;101478.72;;;10.65;100.00
42587;BME280;28216;53.362;-6.288;2023-02-18T07:33:53;101483.00;;;10.66;100.00
42587;BME280;28216;53.362;-6.288;2023-02-18T07:36:19;101486.16;;;10.69;100.00
42587;BME280;28216;53.362;-6.288;2023-02-18T07:38:44;101497.19;;;10.73;100.00
42587;BME280;28216;53.362;-6.288;2023-02-18T07:41:18;101490.88;;;10.66;100.00
42587;BME280;28216;53.362;-6.288;2023-02-18T07:43:45;101499.97;;;10.71;100.00
42587;BME280;28216;53.362;-6.288;2023-02-18T07:46:10;101505.06;;;10.73;100.00
42587;BME280;28216;53.362;-6.288;2023-02-18T07:48:36;101509.19;;;10.75;100.00
42587;BME280;28216;53.362;-6.288;2023-02-18T07:51:05;101504.91;;;10.74;100.00
42587;BME280;28216;53.362;-6.288;2023-02-18T07:53:31;101508.50;;;10.73;100.00
42587;BME280;28216;53.362;-6.288;2023-02-18T07:55:57;101508.50;;;10.73;100.00
42587;BME280;28216;53.362;-6.288;2023-02-18T07:58:30;101513.75;;;10.73;100.00
42587;BME280;28216;53.362;-6.288;2023-02-18T08:00:56;101510.44;;;10.71;100.00
42587;BME280;28216;53.362;-6.288;2023-02-18T08:03:24;101514.31;;;10.67;100.00
42587;BME280;28216;53.362;-6.288;2023-02-18T08:05:50;101508.13;;;10.68;100.00
42587;BME280;28216;53.362;-6.288;2023-02-18T08:08:19;101513.06;;;10.71;100.00
42587;BME280;28216;53.362;-6.288;2023-02-18T08:10:45;101513.09;;;10.62;100.00
42587;BME280;28216;53.362;-6.288;2023-02-18T08:13:12;101513.34;;;10.68;100.00
42587;BME280;28216;53.362;-6.288;2023-02-18T08:15:37;101508.25;;;10.67;100.00
42587;BME280;28216;53.362;-6.288;2023-02-18T08:18:04;101517.63;;;10.69;100.00
42587;BME280;28216;53.362;-6.288;2023-02-18T08:20:29;101522.59;;;10.72;100.00
42587;BME280;28216;53.362;-6.288;2023-02-18T08:22:55;101523.97;;;10.76;100.00
42587;BME280;28216;53.362;-6.288;2023-02-18T08:25:20;101530.59;;;10.71;100.00
42587;BME280;28216;53.362;-6.288;2023-02-18T08:27:46;101531.84;;;10.76;100.00
42587;BME280;28216;53.362;-6.288;2023-02-18T08:30:12;101536.13;;;10.77;100.00
42587;BME280;28216;53.362;-6.288;2023-02-18T08:32:37;101544.38;;;10.82;100.00
42587;BME280;28216;53.362;-6.288;2023-02-18T08:35:04;101542.84;;;10.90;100.00
42587;BME280;28216;53.362;-6.288;2023-02-18T08:37:30;101546.16;;;10.92;100.00
42587;BME280;28216;53.362;-6.288;2023-02-18T08:39:55;101550.44;;;10.93;100.00
42587;BME280;28216;53.362;-6.288;2023-02-18T08:42:21;101567.84;;;10.94;100.00
42587;BME280;28216;53.362;-6.288;2023-02-18T08:44:46;101565.78;;;10.88;100.00
42587;BME280;28216;53.362;-6.288;2023-02-18T08:47:11;101570.63;;;10.82;100.00
42587;BME280;28216;53.362;-6.288;2023-02-18T08:49:37;101574.09;;;10.73;100.00
42587;BME280;28216;53.362;-6.288;2023-02-18T08:52:03;101579.75;;;10.69;100.00
42587;BME280;28216;53.362;-6.288;2023-02-18T08:54:29;101576.31;;;10.68;100.00
42587;BME280;28216;53.362;-6.288;2023-02-18T08:56:55;101567.06;;;10.64;100.00
42587;BME280;28216;53.362;-6.288;2023-02-18T08:59:24;101570.78;;;10.62;100.00
42587;BME280;28216;53.362;-6.288;2023-02-18T09:01:50;101585.56;;;10.63;100.00
42587;BME280;28216;53.362;-6.288;2023-02-18T09:04:15;101593.84;;;10.58;100.00
42587;BME280;28216;53.362;-6.288;2023-02-18T09:06:41;101603.22;;;10.61;100.00
42587;BME280;28216;53.362;-6.288;2023-02-18T09:09:07;101602.41;;;10.60;100.00
42587;BME280;28216;53.362;-6.288;2023-02-18T09:11:33;101604.19;;;10.60;100.00
42587;BME280;28216;53.362;-6.288;2023-02-18T09:14:01;101608.47;;;10.61;100.00
42587;BME280;28216;53.362;-6.288;2023-02-18T09:16:27;101610.81;;;10.64;100.00
42587;BME280;28216;53.362;-6.288;2023-02-18T09:18:54;101607.91;;;10.67;100.00
42587;BME280;28216;53.362;-6.288;2023-02-18T09:21:20;101597.69;;;10.64;100.00
42587;BME280;28216;53.362;-6.288;2023-02-18T09:23:46;101604.47;;;10.57;100.00
42587;BME280;28216;53.362;-6.288;2023-02-18T09:26:14;101605.03;;;10.60;100.00
42587;BME280;28216;53.362;-6.288;2023-02-18T09:28:40;101608.19;;;10.64;100.00
42587;BME280;28216;53.362;-6.288;2023-02-18T09:31:11;101604.19;;;10.60;100.00
42587;BME280;28216;53.362;-6.288;2023-02-18T09:33:39;101609.72;;;10.66;100.00
42587;BME280;28216;53.362;-6.288;2023-02-18T09:36:05;101613.69;;;10.80;100.00
42587;BME280;28216;53.362;-6.288;2023-02-18T09:38:31;101607.50;;;10.81;100.00
42587;BME280;28216;53.362;-6.288;2023-02-18T09:40:59;101606.25;;;10.85;100.00
42587;BME280;28216;53.362;-6.288;2023-02-18T09:43:31;101610.94;;;10.91;100.00
42587;BME280;28216;53.362;-6.288;2023-02-18T09:45:59;101611.03;;;10.99;100.00
42587;BME280;28216;53.362;-6.288;2023-02-18T09:48:35;101611.31;;;11.06;100.00
42587;BME280;28216;53.362;-6.288;2023-02-18T09:51:01;101615.03;;;11.13;100.00
42587;BME280;28216;53.362;-6.288;2023-02-18T09:53:27;101613.09;;;11.25;100.00
42587;BME280;28216;53.362;-6.288;2023-02-18T09:55:55;101609.06;;;11.30;100.00
42587;BME280;28216;53.362;-6.288;2023-02-18T09:58:27;101626.31;;;11.33;100.00
42587;BME280;28216;53.362;-6.288;2023-02-18T10:01:21;101616.66;;;11.33;100.00
42587;BME280;28216;53.362;-6.288;2023-02-18T10:03:49;101623.81;;;11.41;100.00
42587;BME280;28216;53.362;-6.288;2023-02-18T10:06:20;101622.28;;;11.38;100.00
42587;BME280;28216;53.362;-6.288;2023-02-18T10:08:48;101616.47;;;11.44;100.00
42587;BME280;28216;53.362;-6.288;2023-02-18T10:11:22;101621.16;;;11.51;100.00
42587;BME280;28216;53.362;-6.288;2023-02-18T10:13:49;101629.81;;;11.61;100.00
42587;BME280;28216;53.362;-6.288;2023-02-18T10:16:17;101636.47;;;11.55;100.00
42587;BME280;28216;53.362;-6.288;2023-02-18T10:18:58;101640.59;;;11.58;100.00
42587;BME280;28216;53.362;-6.288;2023-02-18T10:21:32;101642.16;;;11.51;100.00
42587;BME280;28216;53.362;-6.288;2023-02-18T10:24:28;101631.13;;;11.47;100.00
42587;BME280;28216;53.362;-6.288;2023-02-18T10:26:54;101630.16;;;11.48;100.00
42587;BME280;28216;53.362;-6.288;2023-02-18T10:29:21;101629.84;;;11.51;100.00
42587;BME280;28216;53.362;-6.288;2023-02-18T10:34:21;101630.25;;;11.56;100.00
42587;BME280;28216;53.362;-6.288;2023-02-18T10:36:58;101635.34;;;11.58;100.00
42587;BME280;28216;53.362;-6.288;2023-02-18T10:45:11;101645.88;;;11.58;100.00
42587;BME280;28216;53.362;-6.288;2023-02-18T10:52:43;101623.59;;;11.62;100.00
42587;BME280;28216;53.362;-6.288;2023-02-18T10:55:16;101620.38;;;11.68;100.00
42587;BME280;28216;53.362;-6.288;2023-02-18T10:57:53;101620.78;;;11.73;100.00
42587;BME280;28216;53.362;-6.288;2023-02-18T11:05:43;101619.09;;;11.82;100.00
42587;BME280;28216;53.362;-6.288;2023-02-18T11:08:14;101620.31;;;11.87;100.00
42587;BME280;28216;53.362;-6.288;2023-02-18T11:10:42;101621.13;;;11.88;100.00
42587;BME280;28216;53.362;-6.288;2023-02-18T11:13:12;101620.38;;;11.77;100.00
42587;BME280;28216;53.362;-6.288;2023-02-18T11:15:54;101619.94;;;11.72;100.00
42587;BME280;28216;53.362;-6.288;2023-02-18T11:18:40;101617.19;;;11.74;100.00
42587;BME280;28216;53.362;-6.288;2023-02-18T11:23:52;101606.97;;;11.71;100.00
42587;BME280;28216;53.362;-6.288;2023-02-18T11:26:28;101605.00;;;11.73;100.00
42587;BME280;28216;53.362;-6.288;2023-02-18T11:29:06;101604.47;;;11.69;100.00
42587;BME280;28216;53.362;-6.288;2023-02-18T11:31:51;101610.25;;;11.73;100.00
42587;BME280;28216;53.362;-6.288;2023-02-18T11:34:22;101605.00;;;11.73;100.00
42587;BME280;28216;53.362;-6.288;2023-02-18T11:36:51;101611.91;;;11.74;100.00
42587;BME280;28216;53.362;-6.288;2023-02-18T11:39:42;101598.50;;;11.77;100.00
42587;BME280;28216;53.362;-6.288;2023-02-18T11:43:08;101602.13;;;11.66;100.00
42587;BME280;28216;53.362;-6.288;2023-02-18T11:46:09;101604.31;;;11.71;100.00
42587;BME280;28216;53.362;-6.288;2023-02-18T11:48:55;101601.84;;;11.69;100.00
42587;BME280;28216;53.362;-6.288;2023-02-18T11:51:27;101604.03;;;11.74;100.00
42587;BME280;28216;53.362;-6.288;2023-02-18T11:54:24;101609.28;;;11.74;100.00
42587;BME280;28216;53.362;-6.288;2023-02-18T11:57:20;101622.44;;;11.74;100.00
42587;BME280;28216;53.362;-6.288;2023-02-18T11:59:57;101614.59;;;11.64;100.00
42587;BME280;28216;53.362;-6.288;2023-02-18T12:02:35;101618.72;;;11.67;100.00
42587;BME280;28216;53.362;-6.288;2023-02-18T12:05:21;101617.59;;;11.69;100.00
42587;BME280;28216;53.362;-6.288;2023-02-18T12:08:16;101623.25;;;11.74;100.00
42587;BME280;28216;53.362;-6.288;2023-02-18T12:10:49;101623.97;;;11.67;100.00
42587;BME280;28216;53.362;-6.288;2023-02-18T12:13:25;101629.72;;;11.53;100.00
42587;BME280;28216;53.362;-6.288;2023-02-18T12:24:48;101630.81;;;11.97;100.00
42587;BME280;28216;53.362;-6.288;2023-02-18T12:27:27;101623.09;;;12.13;100.00
42587;BME280;28216;53.362;-6.288;2023-02-18T12:32:35;101624.16;;;12.20;100.00
42587;BME280;28216;53.362;-6.288;2023-02-18T12:41:01;101628.44;;;12.39;100.00
42587;BME280;28216;53.362;-6.288;2023-02-18T12:52:19;101624.00;;;12.22;100.00
42587;BME280;28216;53.362;-6.288;2023-02-18T13:00:51;101596.06;;;12.38;100.00
42587;BME280;28216;53.362;-6.288;2023-02-18T13:05:56;101583.66;;;12.49;100.00
42587;BME280;28216;53.362;-6.288;2023-02-18T13:12:19;101589.13;;;12.55;100.00
42587;BME280;28216;53.362;-6.288;2023-02-18T13:15:19;101580.66;;;12.44;100.00
42587;BME280;28216;53.362;-6.288;2023-02-18T13:17:48;101584.03;;;12.36;100.00
42587;BME280;28216;53.362;-6.288;2023-02-18T13:20:24;101580.22;;;12.48;100.00
42587;BME280;28216;53.362;-6.288;2023-02-18T13:22:51;101584.19;;;12.52;100.00
42587;BME280;28216;53.362;-6.288;2023-02-18T13:25:18;101579.09;;;12.68;100.00
42587;BME280;28216;53.362;-6.288;2023-02-18T13:27:53;101581.56;;;12.70;100.00
42587;BME280;28216;53.362;-6.288;2023-02-18T13:30:32;101573.81;;;12.68;100.00
42587;BME280;28216;53.362;-6.288;2023-02-18T13:33:53;101599.06;;;12.61;100.00
42587;BME280;28216;53.362;-6.288;2023-02-18T13:45:33;101568.41;;;12.52;100.00
42587;BME280;28216;53.362;-6.288;2023-02-18T13:48:05;101554.88;;;12.47;100.00
42587;BME280;28216;53.362;-6.288;2023-02-18T13:50:46;101558.50;;;12.64;100.00
42587;BME280;28216;53.362;-6.288;2023-02-18T13:53:14;101560.81;;;12.67;100.00
42587;BME280;28216;53.362;-6.288;2023-02-18T13:58:51;101540.44;;;12.69;100.00
42587;BME280;28216;53.362;-6.288;2023-02-18T14:01:37;101554.94;;;12.73;100.00
42587;BME280;28216;53.362;-6.288;2023-02-18T14:10:04;101531.06;;;12.66;100.00
42587;BME280;28216;53.362;-6.288;2023-02-18T14:12:37;101525.84;;;12.57;100.00
42587;BME280;28216;53.362;-6.288;2023-02-18T14:20:42;101534.81;;;12.46;100.00
42587;BME280;28216;53.362;-6.288;2023-02-18T14:25:57;101506.28;;;12.33;100.00
42587;BME280;28216;53.362;-6.288;2023-02-18T14:41:20;101489.22;;;12.37;100.00
42587;BME280;28216;53.362;-6.288;2023-02-18T14:49:46;101488.56;;;12.35;100.00
42587;BME280;28216;53.362;-6.288;2023-02-18T14:52:40;101497.16;;;12.46;100.00
42587;BME280;28216;53.362;-6.288;2023-02-18T14:55:17;101514.75;;;12.45;100.00
42587;BME280;28216;53.362;-6.288;2023-02-18T15:00:42;101518.56;;;12.51;100.00
42587;BME280;28216;53.362;-6.288;2023-02-18T15:03:18;101512.28;;;12.44;100.00
42587;BME280;28216;53.362;-6.288;2023-02-18T15:05:48;101522.50;;;12.47;100.00
42587;BME280;28216;53.362;-6.288;2023-02-18T15:08:20;101513.16;;;12.52;100.00
42587;BME280;28216;53.362;-6.288;2023-02-18T15:10:58;101518.88;;;12.48;100.00
42587;BME280;28216;53.362;-6.288;2023-02-18T15:13:31;101505.13;;;12.54;100.00
42587;BME280;28216;53.362;-6.288;2023-02-18T15:16:10;101534.06;;;12.54;100.00
42587;BME280;28216;53.362;-6.288;2023-02-18T15:18:41;101527.91;;;12.45;100.00